CSAV Lonquen — A8OT2 — position and weather

sailwx.info

Track history (hours):
 
Tides and Currents Weather Stations Pressure Air Temp Water Temp Dewpoint Dewpoint Depression Visibility Wind Speed Wind Dir Waves Ship Positions

CSAV Lonquen

Last reported at 2015-Apr-27 19:24 UTC. Time now 2015-Apr-28 02:07 UTC.
Position N 35°43' E 015°04'.

Length 261 m; draft 11.4 m.

Type: Ship (hazmat cat A). MMSI: 636091501.

Date/timePositionNaut miles runAvg speedWind from/ knotsBaromVisibWave heightAir tempDewpointWater temp
2015-Apr-27 19:24N 35°43' E 015°04'1517.1
2015-Apr-27 18:33N 35°45' E 014°46'1211.7
2015-Apr-27 17:33N 35°49' E 014°33'0 0.0
2015-Apr-27 16:33N 35°49' E 014°33'0 0.0
2015-Apr-27 15:33N 35°49' E 014°33'0 0.0
2015-Apr-27 14:30N 35°49' E 014°33'0 0.0
2015-Apr-27 13:30N 35°49' E 014°33'0 0.0
2015-Apr-27 12:30N 35°49' E 014°33'0 0.0
2015-Apr-27 11:33N 35°49' E 014°33'0 0.0
2015-Apr-27 10:27N 35°49' E 014°33'0 0.0
2015-Apr-27 09:33N 35°49' E 014°33'0 0.0
2015-Apr-27 08:24N 35°49' E 014°33'0 0.0
2015-Apr-27 07:21N 35°49' E 014°33'0 0.0
2015-Apr-27 06:33N 35°49' E 014°33'0 0.4
2015-Apr-27 05:33N 35°49' E 014°32'3 3.3
2015-Apr-27 04:33N 35°48' E 014°36'1110.7
2015-Apr-27 03:33N 35°42' E 014°24'1515.2
2015-Apr-27 02:33N 35°50' E 014°08'1615.6
2015-Apr-27 01:33N 35°59' E 013°52'1615.7
2015-Apr-27 00:33N 36°08' E 013°36'1515.1
2015-Apr-26 23:34N 36°16' E 013°21'1515.1
2015-Apr-26 22:33N 36°25' E 013°05'1515.0
2015-Apr-26 21:34N 36°34' E 012°51'1615.4
2015-Apr-26 20:33N 36°43' E 012°35'1515.5
2015-Apr-26 19:33N 36°53' E 012°20'1615.3
2015-Apr-26 18:33N 37°00' E 012°03'1515.2
2015-Apr-26 17:33N 37°07' E 011°46'1515.4
2015-Apr-26 16:33N 37°13' E 011°29'1515.3
2015-Apr-26 15:34N 37°21' E 011°12'1915.2
2015-Apr-26 14:19N 37°27' E 010°50'1215.4
2015-Apr-26 13:33N 37°30' E 010°35'1615.6
2015-Apr-26 12:32N 37°34' E 010°16'11115.7
2015-Apr-26 05:29N 37°16' E 007°59'17816.1
2015-Apr-25 18:25N 37°08' E 004°16'1416.7
2015-Apr-25 17:33N 37°06' E 003°58'1716.6
2015-Apr-25 16:32N 37°03' E 003°37'2216.7
2015-Apr-25 15:13N 37°00' E 003°10'1216.8
2015-Apr-25 14:29N 36°58' E 002°54'1516.3
2015-Apr-25 13:32N 36°56' E 002°35'5116.4
2015-Apr-25 10:26N 36°49' E 001°33'1615.9
2015-Apr-25 09:26N 36°46' E 001°13'3816.8
2015-Apr-25 07:11N 36°41' E 000°26'5617.8
2015-Apr-25 04:03N 36°33' W 000°43'4717.3
2015-Apr-25 01:21N 36°25' W 001°40'2116.9
2015-Apr-25 00:05N 36°21' W 002°06'916.9
2015-Apr-24 23:33N 36°20' W 002°17'1616.7
2015-Apr-24 22:33N 36°19' W 002°38'1716.7
2015-Apr-24 21:33N 36°16' W 002°58'11017.1
2015-Apr-24 15:06N 36°01' W 005°13'1018.9
2015-Apr-24 14:34N 35°58' W 005°26'10517.1
2015-Apr-24 08:23N 36°10' W 007°35'2016.9
2015-Apr-24 07:11N 36°15' W 007°60'4517.0
2015-Apr-24 04:33N 36°28' W 008°53'1717.1
2015-Apr-24 03:33N 36°33' W 009°13'1816.6
2015-Apr-24 02:29N 36°45' W 009°29'3316.9
2015-Apr-24 00:33N 37°16' W 009°43'4017.4
2015-Apr-23 22:17N 37°54' W 009°54'1317.4
2015-Apr-23 21:32N 38°07' W 009°57'1717.3
2015-Apr-23 20:34N 38°23' W 010°02'1817.5
2015-Apr-23 19:34N 38°41' W 010°06'1717.2
2015-Apr-23 18:33N 38°58' W 010°06'1616.7
2015-Apr-23 17:34N 39°15' W 010°06'69516.4
2015-Apr-21 23:10N 49°48' W 003°28'915.5
2015-Apr-21 22:34N 49°54' W 003°16'1514.4
2015-Apr-21 21:32N 50°01' W 002°56'1413.8
2015-Apr-21 20:33N 50°05' W 002°36'1514.6
2015-Apr-21 19:33N 50°08' W 002°14'1616.5
2015-Apr-21 18:33N 50°12' W 001°49'1918.6
2015-Apr-21 17:33N 50°17' W 001°20'2020.4
2015-Apr-21 16:33N 50°22' W 000°49'2019.8
2015-Apr-21 15:33N 50°28' W 000°19'1918.5
2015-Apr-21 14:33N 50°32' E 000°09'1818.1
2015-Apr-21 13:34N 50°37' E 000°36'1817.3
2015-Apr-21 12:30N 50°48' E 000°59'1616.9
2015-Apr-21 11:33N 50°59' E 001°18'2019.7
2015-Apr-21 10:34N 51°12' E 001°42'1918.6
2015-Apr-21 09:34N 51°24' E 002°04'1918.1
2015-Apr-21 08:32N 51°23' E 002°33'1616.4
2015-Apr-21 07:33N 51°23' E 002°59'1817.6
2015-Apr-21 06:33N 51°25' E 003°27'1212.3
2015-Apr-21 05:33N 51°22' E 003°46'1110.8
2015-Apr-21 04:34N 51°22' E 004°03'9 9.2
2015-Apr-21 03:33N 51°18' E 004°16'0 0.4
2015-Apr-21 02:29N 51°18' E 004°16'0 0.0
2015-Apr-21 01:29N 51°18' E 004°16'0 0.0
2015-Apr-21 00:29N 51°18' E 004°16'0 0.0
2015-Apr-20 23:32N 51°18' E 004°16'0 0.0
2015-Apr-20 22:23N 51°18' E 004°16'0 0.0
2015-Apr-20 21:29N 51°18' E 004°16'0 0.0
2015-Apr-20 20:32N 51°18' E 004°16'0 0.0
2015-Apr-20 19:29N 51°18' E 004°16'0 0.0
2015-Apr-20 18:29N 51°18' E 004°16'0 0.0
2015-Apr-20 17:32N 51°18' E 004°16'0 0.0
2015-Apr-20 16:32N 51°18' E 004°16'0 0.0
2015-Apr-20 15:32N 51°18' E 004°16'0 0.0
2015-Apr-20 14:20N 51°18' E 004°16'0 0.0
2015-Apr-20 13:23N 51°18' E 004°16'0 0.0
2015-Apr-20 12:32N 51°18' E 004°16'0 0.0
2015-Apr-20 11:32N 51°18' E 004°16'2 2.1
2015-Apr-20 10:34N 51°20' E 004°16'5 5.2
2015-Apr-20 09:33N 51°23' E 004°09'8 7.8
2015-Apr-20 08:33N 51°23' E 003°57'9 9.2
2015-Apr-20 07:33N 51°25' E 003°42'9 8.7
2015-Apr-20 06:33N 51°25' E 003°29'1414.2
2015-Apr-20 05:33N 51°24' E 003°06'1211.9
2015-Apr-20 04:33N 51°36' E 003°10'1312.9
2015-Apr-20 03:33N 51°48' E 003°16'1010.0
2015-Apr-20 02:33N 51°58' E 003°19'1111.0
2015-Apr-20 01:33N 52°09' E 003°22'9 8.7
2015-Apr-20 00:33N 52°17' E 003°25'7 7.3
2015-Apr-19 23:34N 52°24' E 003°27'8 7.9
2015-Apr-19 22:32N 52°32' E 003°29'8 7.8
2015-Apr-19 21:29N 52°40' E 003°35'19 9.0
2015-Apr-19 19:24N 52°54' E 003°54'8 9.3
2015-Apr-19 18:31N 53°00' E 004°04'8 8.4
2015-Apr-19 17:33N 53°06' E 004°14'10 8.0
2015-Apr-19 16:16N 53°13' E 004°26'6 8.2
2015-Apr-19 15:30N 53°19' E 004°30'10 7.8
2015-Apr-19 14:10N 53°28' E 004°38'6 9.0
2015-Apr-19 13:33N 53°30' E 004°46'10 9.6
2015-Apr-19 12:34N 53°34' E 005°01'9 9.2
2015-Apr-19 11:34N 53°37' E 005°15'9 8.7
2015-Apr-19 10:33N 53°40' E 005°29'9 8.5
2015-Apr-19 09:33N 53°43' E 005°43'8 8.2
2015-Apr-19 08:33N 53°46' E 005°56'8 8.3
2015-Apr-19 07:32N 53°48' E 006°10'37 8.7
2015-Apr-19 03:16N 53°56' E 007°11'6 9.2
2015-Apr-19 02:33N 53°58' E 007°22'9 9.0
2015-Apr-19 01:33N 53°59' E 007°37'8 7.7
2015-Apr-19 00:33N 53°53' E 007°46'1312.9
2015-Apr-18 23:33N 53°49' E 008°06'1616.3
2015-Apr-18 22:33N 53°38' E 008°26'4 3.9
2015-Apr-18 21:31N 53°36' E 008°31'0 0.0
2015-Apr-18 20:31N 53°36' E 008°31'0 0.0
2015-Apr-18 19:31N 53°36' E 008°31'0 0.0
2015-Apr-18 18:31N 53°36' E 008°31'0 0.0
2015-Apr-18 17:31N 53°36' E 008°31'0 0.0
2015-Apr-18 16:31N 53°36' E 008°31'0 0.0
2015-Apr-18 15:31N 53°36' E 008°31'0 0.0
2015-Apr-18 14:31N 53°36' E 008°31'0 0.0
2015-Apr-18 13:31N 53°36' E 008°31'0 0.0
2015-Apr-18 12:31N 53°36' E 008°31'0 0.0
2015-Apr-18 11:31N 53°36' E 008°31'0 0.0
2015-Apr-18 10:31N 53°36' E 008°31'0 0.0
2015-Apr-18 09:31N 53°36' E 008°31'0 0.0
2015-Apr-18 08:31N 53°36' E 008°31'0 0.0
2015-Apr-18 07:31N 53°36' E 008°31'0 0.0
2015-Apr-18 06:31N 53°36' E 008°31'0 0.0
2015-Apr-18 05:31N 53°36' E 008°31'0 0.0
2015-Apr-18 04:31N 53°36' E 008°31'0 0.0
2015-Apr-18 03:31N 53°36' E 008°31'0 0.0
2015-Apr-18 02:31N 53°36' E 008°31'0 0.0
2015-Apr-18 01:31N 53°36' E 008°31'0 0.0
2015-Apr-18 00:31N 53°36' E 008°31'0 0.0
2015-Apr-17 23:31N 53°36' E 008°31'0 0.0
2015-Apr-17 22:31N 53°36' E 008°31'0 0.0
2015-Apr-17 21:31N 53°36' E 008°31'0 0.0
2015-Apr-17 20:31N 53°36' E 008°31'0 0.0
2015-Apr-17 19:31N 53°36' E 008°31'  
Track history (hours):
 
Tides and Currents Weather Stations Pressure Air Temp Water Temp Dewpoint Dewpoint Depression Visibility Wind Speed Wind Dir Waves Ship Positions

CSAV Lonquen

Last reported at 2015-Apr-27 19:24 UTC. Time now 2015-Apr-28 02:07 UTC.
Position N 35°43' E 015°04'.

Length 261 m; draft 11.4 m.

Type: Ship (hazmat cat A). MMSI: 636091501.

Date/timePositionNaut miles runAvg speedWind from/ knotsBaromVisibWave heightAir tempDewpointWater temp
2015-Apr-27 19:24N 35°43' E 015°04'1517.1
2015-Apr-27 18:33N 35°45' E 014°46'1211.7
2015-Apr-27 17:33N 35°49' E 014°33'0 0.0
2015-Apr-27 16:33N 35°49' E 014°33'0 0.0
2015-Apr-27 15:33N 35°49' E 014°33'0 0.0
2015-Apr-27 14:30N 35°49' E 014°33'0 0.0
2015-Apr-27 13:30N 35°49' E 014°33'0 0.0
2015-Apr-27 12:30N 35°49' E 014°33'0 0.0
2015-Apr-27 11:33N 35°49' E 014°33'0 0.0
2015-Apr-27 10:27N 35°49' E 014°33'0 0.0
2015-Apr-27 09:33N 35°49' E 014°33'0 0.0
2015-Apr-27 08:24N 35°49' E 014°33'0 0.0
2015-Apr-27 07:21N 35°49' E 014°33'0 0.0
2015-Apr-27 06:33N 35°49' E 014°33'0 0.4
2015-Apr-27 05:33N 35°49' E 014°32'3 3.3
2015-Apr-27 04:33N 35°48' E 014°36'1110.7
2015-Apr-27 03:33N 35°42' E 014°24'1515.2
2015-Apr-27 02:33N 35°50' E 014°08'1615.6
2015-Apr-27 01:33N 35°59' E 013°52'1615.7
2015-Apr-27 00:33N 36°08' E 013°36'1515.1
2015-Apr-26 23:34N 36°16' E 013°21'1515.1
2015-Apr-26 22:33N 36°25' E 013°05'1515.0
2015-Apr-26 21:34N 36°34' E 012°51'1615.4
2015-Apr-26 20:33N 36°43' E 012°35'1515.5
2015-Apr-26 19:33N 36°53' E 012°20'1615.3
2015-Apr-26 18:33N 37°00' E 012°03'1515.2
2015-Apr-26 17:33N 37°07' E 011°46'1515.4
2015-Apr-26 16:33N 37°13' E 011°29'1515.3
2015-Apr-26 15:34N 37°21' E 011°12'1915.2
2015-Apr-26 14:19N 37°27' E 010°50'1215.4
2015-Apr-26 13:33N 37°30' E 010°35'1615.6
2015-Apr-26 12:32N 37°34' E 010°16'11115.7
2015-Apr-26 05:29N 37°16' E 007°59'17816.1
2015-Apr-25 18:25N 37°08' E 004°16'1416.7
2015-Apr-25 17:33N 37°06' E 003°58'1716.6
2015-Apr-25 16:32N 37°03' E 003°37'2216.7
2015-Apr-25 15:13N 37°00' E 003°10'1216.8
2015-Apr-25 14:29N 36°58' E 002°54'1516.3
2015-Apr-25 13:32N 36°56' E 002°35'5116.4
2015-Apr-25 10:26N 36°49' E 001°33'1615.9
2015-Apr-25 09:26N 36°46' E 001°13'3816.8
2015-Apr-25 07:11N 36°41' E 000°26'5617.8
2015-Apr-25 04:03N 36°33' W 000°43'4717.3
2015-Apr-25 01:21N 36°25' W 001°40'2116.9
2015-Apr-25 00:05N 36°21' W 002°06'916.9
2015-Apr-24 23:33N 36°20' W 002°17'1616.7
2015-Apr-24 22:33N 36°19' W 002°38'1716.7
2015-Apr-24 21:33N 36°16' W 002°58'11017.1
2015-Apr-24 15:06N 36°01' W 005°13'1018.9
2015-Apr-24 14:34N 35°58' W 005°26'10517.1
2015-Apr-24 08:23N 36°10' W 007°35'2016.9
2015-Apr-24 07:11N 36°15' W 007°60'4517.0
2015-Apr-24 04:33N 36°28' W 008°53'1717.1
2015-Apr-24 03:33N 36°33' W 009°13'1816.6
2015-Apr-24 02:29N 36°45' W 009°29'3316.9
2015-Apr-24 00:33N 37°16' W 009°43'4017.4
2015-Apr-23 22:17N 37°54' W 009°54'1317.4
2015-Apr-23 21:32N 38°07' W 009°57'1717.3
2015-Apr-23 20:34N 38°23' W 010°02'1817.5
2015-Apr-23 19:34N 38°41' W 010°06'1717.2
2015-Apr-23 18:33N 38°58' W 010°06'1616.7
2015-Apr-23 17:34N 39°15' W 010°06'69516.4
2015-Apr-21 23:10N 49°48' W 003°28'915.5
2015-Apr-21 22:34N 49°54' W 003°16'1514.4
2015-Apr-21 21:32N 50°01' W 002°56'1413.8
2015-Apr-21 20:33N 50°05' W 002°36'1514.6
2015-Apr-21 19:33N 50°08' W 002°14'1616.5
2015-Apr-21 18:33N 50°12' W 001°49'1918.6
2015-Apr-21 17:33N 50°17' W 001°20'2020.4
2015-Apr-21 16:33N 50°22' W 000°49'2019.8
2015-Apr-21 15:33N 50°28' W 000°19'1918.5
2015-Apr-21 14:33N 50°32' E 000°09'1818.1
2015-Apr-21 13:34N 50°37' E 000°36'1817.3
2015-Apr-21 12:30N 50°48' E 000°59'1616.9
2015-Apr-21 11:33N 50°59' E 001°18'2019.7
2015-Apr-21 10:34N 51°12' E 001°42'1918.6
2015-Apr-21 09:34N 51°24' E 002°04'1918.1
2015-Apr-21 08:32N 51°23' E 002°33'1616.4
2015-Apr-21 07:33N 51°23' E 002°59'1817.6
2015-Apr-21 06:33N 51°25' E 003°27'1212.3
2015-Apr-21 05:33N 51°22' E 003°46'1110.8
2015-Apr-21 04:34N 51°22' E 004°03'9 9.2
2015-Apr-21 03:33N 51°18' E 004°16'0 0.4
2015-Apr-21 02:29N 51°18' E 004°16'0 0.0
2015-Apr-21 01:29N 51°18' E 004°16'0 0.0
2015-Apr-21 00:29N 51°18' E 004°16'0 0.0
2015-Apr-20 23:32N 51°18' E 004°16'0 0.0
2015-Apr-20 22:23N 51°18' E 004°16'0 0.0
2015-Apr-20 21:29N 51°18' E 004°16'0 0.0
2015-Apr-20 20:32N 51°18' E 004°16'0 0.0
2015-Apr-20 19:29N 51°18' E 004°16'0 0.0
2015-Apr-20 18:29N 51°18' E 004°16'0 0.0
2015-Apr-20 17:32N 51°18' E 004°16'0 0.0
2015-Apr-20 16:32N 51°18' E 004°16'0 0.0
2015-Apr-20 15:32N 51°18' E 004°16'0 0.0
2015-Apr-20 14:20N 51°18' E 004°16'0 0.0
2015-Apr-20 13:23N 51°18' E 004°16'0 0.0
2015-Apr-20 12:32N 51°18' E 004°16'0 0.0
2015-Apr-20 11:32N 51°18' E 004°16'2 2.1
2015-Apr-20 10:34N 51°20' E 004°16'5 5.2
2015-Apr-20 09:33N 51°23' E 004°09'8 7.8
2015-Apr-20 08:33N 51°23' E 003°57'9 9.2
2015-Apr-20 07:33N 51°25' E 003°42'9 8.7
2015-Apr-20 06:33N 51°25' E 003°29'1414.2
2015-Apr-20 05:33N 51°24' E 003°06'1211.9
2015-Apr-20 04:33N 51°36' E 003°10'1312.9
2015-Apr-20 03:33N 51°48' E 003°16'1010.0
2015-Apr-20 02:33N 51°58' E 003°19'1111.0
2015-Apr-20 01:33N 52°09' E 003°22'9 8.7
2015-Apr-20 00:33N 52°17' E 003°25'7 7.3
2015-Apr-19 23:34N 52°24' E 003°27'8 7.9
2015-Apr-19 22:32N 52°32' E 003°29'8 7.8
2015-Apr-19 21:29N 52°40' E 003°35'19 9.0
2015-Apr-19 19:24N 52°54' E 003°54'8 9.3
2015-Apr-19 18:31N 53°00' E 004°04'8 8.4
2015-Apr-19 17:33N 53°06' E 004°14'10 8.0
2015-Apr-19 16:16N 53°13' E 004°26'6 8.2
2015-Apr-19 15:30N 53°19' E 004°30'10 7.8
2015-Apr-19 14:10N 53°28' E 004°38'6 9.0
2015-Apr-19 13:33N 53°30' E 004°46'10 9.6
2015-Apr-19 12:34N 53°34' E 005°01'9 9.2
2015-Apr-19 11:34N 53°37' E 005°15'9 8.7
2015-Apr-19 10:33N 53°40' E 005°29'9 8.5
2015-Apr-19 09:33N 53°43' E 005°43'8 8.2
2015-Apr-19 08:33N 53°46' E 005°56'8 8.3
2015-Apr-19 07:32N 53°48' E 006°10'37 8.7
2015-Apr-19 03:16N 53°56' E 007°11'6 9.2
2015-Apr-19 02:33N 53°58' E 007°22'9 9.0
2015-Apr-19 01:33N 53°59' E 007°37'8 7.7
2015-Apr-19 00:33N 53°53' E 007°46'1312.9
2015-Apr-18 23:33N 53°49' E 008°06'1616.3
2015-Apr-18 22:33N 53°38' E 008°26'4 3.9
2015-Apr-18 21:31N 53°36' E 008°31'0 0.0
2015-Apr-18 20:31N 53°36' E 008°31'0 0.0
2015-Apr-18 19:31N 53°36' E 008°31'0 0.0
2015-Apr-18 18:31N 53°36' E 008°31'0 0.0
2015-Apr-18 17:31N 53°36' E 008°31'0 0.0
2015-Apr-18 16:31N 53°36' E 008°31'0 0.0
2015-Apr-18 15:31N 53°36' E 008°31'0 0.0
2015-Apr-18 14:31N 53°36' E 008°31'0 0.0
2015-Apr-18 13:31N 53°36' E 008°31'0 0.0
2015-Apr-18 12:31N 53°36' E 008°31'0 0.0
2015-Apr-18 11:31N 53°36' E 008°31'0 0.0
2015-Apr-18 10:31N 53°36' E 008°31'0 0.0
2015-Apr-18 09:31N 53°36' E 008°31'0 0.0
2015-Apr-18 08:31N 53°36' E 008°31'0 0.0
2015-Apr-18 07:31N 53°36' E 008°31'0 0.0
2015-Apr-18 06:31N 53°36' E 008°31'0 0.0
2015-Apr-18 05:31N 53°36' E 008°31'0 0.0
2015-Apr-18 04:31N 53°36' E 008°31'0 0.0
2015-Apr-18 03:31N 53°36' E 008°31'0 0.0
2015-Apr-18 02:31N 53°36' E 008°31'0 0.0
2015-Apr-18 01:31N 53°36' E 008°31'0 0.0
2015-Apr-18 00:31N 53°36' E 008°31'0 0.0
2015-Apr-17 23:31N 53°36' E 008°31'0 0.0
2015-Apr-17 22:31N 53°36' E 008°31'0 0.0
2015-Apr-17 21:31N 53°36' E 008°31'0 0.0
2015-Apr-17 20:31N 53°36' E 008°31'0 0.0
2015-Apr-17 19:31N 53°36' E 008°31'  

Dump ship's entire track history